sensor_id;sensor_type;location;lat;lon;timestamp;pressure;altitude;pressure_sealevel;temperature;humidity
22872;BME280;11603;44.910;8.630;2023-03-11T00:01:39;98957.47;;;14.57;52.12
22872;BME280;11603;44.910;8.630;2023-03-11T00:04:05;98952.56;;;14.52;52.38
22872;BME280;11603;44.910;8.630;2023-03-11T00:06:34;98939.63;;;14.56;52.60
22872;BME280;11603;44.910;8.630;2023-03-11T00:08:59;98936.28;;;14.62;52.24
22872;BME280;11603;44.910;8.630;2023-03-11T00:11:25;98949.25;;;14.58;52.26
22872;BME280;11603;44.910;8.630;2023-03-11T00:13:51;98956.13;;;14.61;52.36
22872;BME280;11603;44.910;8.630;2023-03-11T00:16:16;98932.94;;;14.60;52.53
22872;BME280;11603;44.910;8.630;2023-03-11T00:18:42;98911.22;;;14.61;52.59
22872;BME280;11603;44.910;8.630;2023-03-11T00:21:14;98949.75;;;14.62;52.61
22872;BME280;11603;44.910;8.630;2023-03-11T00:23:40;98974.94;;;14.53;52.89
22872;BME280;11603;44.910;8.630;2023-03-11T00:26:05;98968.38;;;14.55;53.08
22872;BME280;11603;44.910;8.630;2023-03-11T00:28:31;98970.41;;;14.53;53.55
22872;BME280;11603;44.910;8.630;2023-03-11T00:30:56;98976.44;;;14.29;55.77
22872;BME280;11603;44.910;8.630;2023-03-11T00:33:22;98978.25;;;14.03;56.67
22872;BME280;11603;44.910;8.630;2023-03-11T00:35:49;98986.59;;;13.74;56.93
22872;BME280;11603;44.910;8.630;2023-03-11T00:38:15;98978.47;;;13.66;58.06
22872;BME280;11603;44.910;8.630;2023-03-11T00:40:41;98970.84;;;13.62;58.62
22872;BME280;11603;44.910;8.630;2023-03-11T00:43:07;98969.56;;;13.66;58.96
22872;BME280;11603;44.910;8.630;2023-03-11T00:45:34;98986.13;;;13.61;59.28
22872;BME280;11603;44.910;8.630;2023-03-11T00:48:00;98982.44;;;13.62;59.62
22872;BME280;11603;44.910;8.630;2023-03-11T00:50:31;98984.16;;;13.63;59.61
22872;BME280;11603;44.910;8.630;2023-03-11T00:52:58;98964.72;;;13.69;59.53
22872;BME280;11603;44.910;8.630;2023-03-11T00:55:29;98951.16;;;13.71;59.22
22872;BME280;11603;44.910;8.630;2023-03-11T00:57:58;98941.50;;;13.60;59.57
22872;BME280;11603;44.910;8.630;2023-03-11T01:00:28;98937.72;;;13.53;59.33
22872;BME280;11603;44.910;8.630;2023-03-11T01:02:55;98944.69;;;13.46;59.82
22872;BME280;11603;44.910;8.630;2023-03-11T01:05:25;98934.88;;;13.37;59.63
22872;BME280;11603;44.910;8.630;2023-03-11T01:07:51;98913.25;;;13.38;58.99
22872;BME280;11603;44.910;8.630;2023-03-11T01:10:17;98894.44;;;13.38;58.69
22872;BME280;11603;44.910;8.630;2023-03-11T01:12:43;98885.41;;;13.39;57.86
22872;BME280;11603;44.910;8.630;2023-03-11T01:15:16;98895.31;;;13.39;57.88
22872;BME280;11603;44.910;8.630;2023-03-11T01:17:42;98893.28;;;13.41;58.35
22872;BME280;11603;44.910;8.630;2023-03-11T01:20:09;98887.78;;;13.42;57.68
22872;BME280;11603;44.910;8.630;2023-03-11T01:22:35;98894.00;;;13.43;57.46
22872;BME280;11603;44.910;8.630;2023-03-11T01:25:00;98902.41;;;13.48;57.24
22872;BME280;11603;44.910;8.630;2023-03-11T01:27:26;98904.41;;;13.46;57.16
22872;BME280;11603;44.910;8.630;2023-03-11T01:29:52;98883.75;;;13.46;57.13
22872;BME280;11603;44.910;8.630;2023-03-11T01:32:18;98876.56;;;13.47;57.15
22872;BME280;11603;44.910;8.630;2023-03-11T01:34:44;98867.34;;;13.49;57.20
22872;BME280;11603;44.910;8.630;2023-03-11T01:37:10;98861.81;;;13.51;57.39
22872;BME280;11603;44.910;8.630;2023-03-11T01:39:35;98856.28;;;13.52;57.32
22872;BME280;11603;44.910;8.630;2023-03-11T01:42:01;98862.00;;;13.49;57.12
22872;BME280;11603;44.910;8.630;2023-03-11T01:44:27;98877.13;;;13.33;57.39
22872;BME280;11603;44.910;8.630;2023-03-11T01:49:22;98859.88;;;13.18;56.90
22872;BME280;11603;44.910;8.630;2023-03-11T01:51:50;98864.78;;;13.22;56.95
22872;BME280;11603;44.910;8.630;2023-03-11T01:54:26;98844.22;;;13.13;56.32
22872;BME280;11603;44.910;8.630;2023-03-11T01:56:53;98843.97;;;13.06;56.40
22872;BME280;11603;44.910;8.630;2023-03-11T01:59:24;98829.31;;;13.01;56.32
22872;BME280;11603;44.910;8.630;2023-03-11T02:01:58;98814.19;;;13.00;56.55
22872;BME280;11603;44.910;8.630;2023-03-11T02:04:27;98817.88;;;12.99;56.84
22872;BME280;11603;44.910;8.630;2023-03-11T02:06:55;98825.78;;;13.00;56.83
22872;BME280;11603;44.910;8.630;2023-03-11T02:09:21;98862.38;;;13.01;57.63
22872;BME280;11603;44.910;8.630;2023-03-11T02:11:49;98859.53;;;13.03;57.34
22872;BME280;11603;44.910;8.630;2023-03-11T02:14:16;98848.47;;;13.06;57.42
22872;BME280;11603;44.910;8.630;2023-03-11T02:16:41;98845.66;;;13.07;57.78
22872;BME280;11603;44.910;8.630;2023-03-11T02:21:59;98834.19;;;12.88;58.07
22872;BME280;11603;44.910;8.630;2023-03-11T02:24:47;98850.00;;;12.91;57.86
22872;BME280;11603;44.910;8.630;2023-03-11T02:27:18;98850.00;;;12.91;57.38
22872;BME280;11603;44.910;8.630;2023-03-11T02:29:48;98849.88;;;12.92;57.25
22872;BME280;11603;44.910;8.630;2023-03-11T02:32:17;98854.06;;;12.95;57.19
22872;BME280;11603;44.910;8.630;2023-03-11T02:34:43;98851.38;;;12.95;56.70
22872;BME280;11603;44.910;8.630;2023-03-11T02:37:11;98841.25;;;12.89;56.21
22872;BME280;11603;44.910;8.630;2023-03-11T02:39:44;98846.00;;;12.77;56.22
22872;BME280;11603;44.910;8.630;2023-03-11T02:42:27;98863.13;;;12.76;56.07
22872;BME280;11603;44.910;8.630;2023-03-11T02:44:59;98844.47;;;12.74;56.76
22872;BME280;11603;44.910;8.630;2023-03-11T02:47:27;98851.44;;;12.67;57.27
22872;BME280;11603;44.910;8.630;2023-03-11T02:49:54;98853.97;;;12.69;57.30
22872;BME280;11603;44.910;8.630;2023-03-11T02:52:21;98853.81;;;12.70;58.08
22872;BME280;11603;44.910;8.630;2023-03-11T02:54:46;98861.03;;;12.70;57.46
22872;BME280;11603;44.910;8.630;2023-03-11T02:57:12;98843.38;;;12.67;58.18
22872;BME280;11603;44.910;8.630;2023-03-11T02:59:39;98827.75;;;12.63;58.64
22872;BME280;11603;44.910;8.630;2023-03-11T03:02:05;98847.69;;;12.60;58.10
22872;BME280;11603;44.910;8.630;2023-03-11T03:04:31;98865.03;;;12.56;57.71
22872;BME280;11603;44.910;8.630;2023-03-11T03:06:58;98874.59;;;12.41;57.87
22872;BME280;11603;44.910;8.630;2023-03-11T03:09:23;98869.28;;;12.31;58.33
22872;BME280;11603;44.910;8.630;2023-03-11T03:11:49;98846.00;;;12.32;58.61
22872;BME280;11603;44.910;8.630;2023-03-11T03:14:14;98817.34;;;12.32;58.92
22872;BME280;11603;44.910;8.630;2023-03-11T03:16:40;98825.53;;;12.31;59.61
22872;BME280;11603;44.910;8.630;2023-03-11T03:19:05;98814.69;;;12.32;59.64
22872;BME280;11603;44.910;8.630;2023-03-11T03:21:31;98815.91;;;12.11;59.65
22872;BME280;11603;44.910;8.630;2023-03-11T03:23:56;98810.50;;;11.93;60.47
22872;BME280;11603;44.910;8.630;2023-03-11T03:26:22;98819.84;;;11.79;61.75
22872;BME280;11603;44.910;8.630;2023-03-11T03:28:48;98821.84;;;11.77;61.89
22872;BME280;11603;44.910;8.630;2023-03-11T03:31:14;98808.44;;;11.68;62.53
22872;BME280;11603;44.910;8.630;2023-03-11T03:33:41;98801.81;;;11.62;63.01
22872;BME280;11603;44.910;8.630;2023-03-11T03:36:09;98806.09;;;11.55;63.35
22872;BME280;11603;44.910;8.630;2023-03-11T03:38:41;98828.38;;;11.36;65.03
22872;BME280;11603;44.910;8.630;2023-03-11T03:41:07;98852.03;;;11.31;65.59
22872;BME280;11603;44.910;8.630;2023-03-11T03:43:35;98855.72;;;11.30;66.08
22872;BME280;11603;44.910;8.630;2023-03-11T03:46:03;98848.38;;;11.42;65.75
22872;BME280;11603;44.910;8.630;2023-03-11T03:48:35;98869.09;;;11.50;66.02
22872;BME280;11603;44.910;8.630;2023-03-11T03:51:05;98872.19;;;11.55;65.84
22872;BME280;11603;44.910;8.630;2023-03-11T03:53:35;98864.84;;;11.47;67.23
22872;BME280;11603;44.910;8.630;2023-03-11T03:56:10;98839.34;;;11.43;67.36
22872;BME280;11603;44.910;8.630;2023-03-11T03:58:36;98822.88;;;11.38;67.88
22872;BME280;11603;44.910;8.630;2023-03-11T04:01:06;98816.41;;;11.40;67.96
22872;BME280;11603;44.910;8.630;2023-03-11T04:03:33;98827.28;;;11.29;69.56
22872;BME280;11603;44.910;8.630;2023-03-11T04:06:09;98800.78;;;11.17;71.15
22872;BME280;11603;44.910;8.630;2023-03-11T04:08:36;98803.78;;;11.14;72.12
22872;BME280;11603;44.910;8.630;2023-03-11T04:11:02;98833.06;;;10.96;73.61
22872;BME280;11603;44.910;8.630;2023-03-11T04:13:30;98834.03;;;10.85;74.53
22872;BME280;11603;44.910;8.630;2023-03-11T04:15:55;98844.06;;;10.93;74.82
22872;BME280;11603;44.910;8.630;2023-03-11T04:18:21;98838.28;;;11.07;74.12
22872;BME280;11603;44.910;8.630;2023-03-11T04:20:47;98830.22;;;11.17;73.91
22872;BME280;11603;44.910;8.630;2023-03-11T04:23:13;98850.34;;;11.21;74.06
22872;BME280;11603;44.910;8.630;2023-03-11T04:25:39;98841.78;;;11.17;77.20
22872;BME280;11603;44.910;8.630;2023-03-11T04:28:05;98866.00;;;11.16;77.23
22872;BME280;11603;44.910;8.630;2023-03-11T04:30:31;98877.69;;;11.24;76.57
22872;BME280;11603;44.910;8.630;2023-03-11T04:32:57;98888.66;;;11.31;76.59
22872;BME280;11603;44.910;8.630;2023-03-11T04:35:23;98860.06;;;11.31;75.47
22872;BME280;11603;44.910;8.630;2023-03-11T04:37:49;98866.84;;;11.26;75.70
22872;BME280;11603;44.910;8.630;2023-03-11T04:40:16;98854.16;;;11.28;75.29
22872;BME280;11603;44.910;8.630;2023-03-11T04:42:43;98866.16;;;11.24;77.26
22872;BME280;11603;44.910;8.630;2023-03-11T04:45:09;98875.03;;;11.24;78.19
22872;BME280;11603;44.910;8.630;2023-03-11T04:47:36;98877.53;;;11.16;76.21
22872;BME280;11603;44.910;8.630;2023-03-11T04:50:03;98855.72;;;11.11;80.73
22872;BME280;11603;44.910;8.630;2023-03-11T04:52:29;98836.31;;;11.09;85.87
22872;BME280;11603;44.910;8.630;2023-03-11T04:54:55;98835.16;;;11.12;87.89
22872;BME280;11603;44.910;8.630;2023-03-11T04:57:21;98813.63;;;11.13;89.32
22872;BME280;11603;44.910;8.630;2023-03-11T04:59:47;98786.44;;;11.18;88.45
22872;BME280;11603;44.910;8.630;2023-03-11T05:02:13;98782.50;;;11.12;80.00
22872;BME280;11603;44.910;8.630;2023-03-11T05:04:45;98766.03;;;11.07;78.88
22872;BME280;11603;44.910;8.630;2023-03-11T05:07:13;98765.63;;;11.02;78.44
22872;BME280;11603;44.910;8.630;2023-03-11T05:09:39;98775.78;;;10.98;77.81
22872;BME280;11603;44.910;8.630;2023-03-11T05:12:05;98784.19;;;10.94;77.94
22872;BME280;11603;44.910;8.630;2023-03-11T05:14:33;98789.00;;;10.90;77.88
22872;BME280;11603;44.910;8.630;2023-03-11T05:16:58;98781.53;;;10.84;78.14
22872;BME280;11603;44.910;8.630;2023-03-11T05:19:24;98806.03;;;10.80;77.57
22872;BME280;11603;44.910;8.630;2023-03-11T05:21:57;98837.25;;;10.70;78.00
22872;BME280;11603;44.910;8.630;2023-03-11T05:24:25;98862.03;;;10.72;78.50
22872;BME280;11603;44.910;8.630;2023-03-11T05:26:51;98851.19;;;10.63;79.47
22872;BME280;11603;44.910;8.630;2023-03-11T05:29:17;98851.47;;;10.70;79.88
22872;BME280;11603;44.910;8.630;2023-03-11T05:31:43;98841.63;;;10.61;80.86
22872;BME280;11603;44.910;8.630;2023-03-11T05:34:09;98866.53;;;10.61;81.14
22872;BME280;11603;44.910;8.630;2023-03-11T05:36:34;98874.81;;;10.58;81.39
22872;BME280;11603;44.910;8.630;2023-03-11T05:39:00;98871.03;;;10.71;81.01
22872;BME280;11603;44.910;8.630;2023-03-11T05:41:26;98874.16;;;10.85;80.37
22872;BME280;11603;44.910;8.630;2023-03-11T05:43:52;98859.38;;;10.91;80.58
22872;BME280;11603;44.910;8.630;2023-03-11T05:46:17;98861.94;;;10.92;80.63
22872;BME280;11603;44.910;8.630;2023-03-11T05:48:45;98827.84;;;10.94;80.16
22872;BME280;11603;44.910;8.630;2023-03-11T05:51:12;98842.91;;;10.95;80.27
22872;BME280;11603;44.910;8.630;2023-03-11T05:53:47;98840.66;;;10.91;84.62
22872;BME280;11603;44.910;8.630;2023-03-11T05:56:18;98834.47;;;10.81;90.39
22872;BME280;11603;44.910;8.630;2023-03-11T05:58:44;98810.09;;;10.74;92.14
22872;BME280;11603;44.910;8.630;2023-03-11T06:01:13;98810.53;;;10.70;94.01
22872;BME280;11603;44.910;8.630;2023-03-11T06:03:39;98815.31;;;10.66;94.16
22872;BME280;11603;44.910;8.630;2023-03-11T06:06:07;98834.59;;;10.70;93.94
22872;BME280;11603;44.910;8.630;2023-03-11T06:08:34;98835.69;;;10.57;93.54
22872;BME280;11603;44.910;8.630;2023-03-11T06:11:08;98835.28;;;10.62;90.71
22872;BME280;11603;44.910;8.630;2023-03-11T06:13:36;98810.66;;;10.68;88.73
22872;BME280;11603;44.910;8.630;2023-03-11T06:16:02;98828.56;;;10.68;87.88
22872;BME280;11603;44.910;8.630;2023-03-11T06:18:28;98839.78;;;10.52;89.82
22872;BME280;11603;44.910;8.630;2023-03-11T06:20:57;98839.16;;;10.39;90.96
22872;BME280;11603;44.910;8.630;2023-03-11T06:23:24;98850.28;;;10.44;90.52
22872;BME280;11603;44.910;8.630;2023-03-11T06:25:58;98851.03;;;10.65;89.81
22872;BME280;11603;44.910;8.630;2023-03-11T06:28:26;98854.59;;;10.85;88.31
22872;BME280;11603;44.910;8.630;2023-03-11T06:30:52;98843.34;;;10.91;89.59
22872;BME280;11603;44.910;8.630;2023-03-11T06:33:18;98802.22;;;10.92;90.85
22872;BME280;11603;44.910;8.630;2023-03-11T06:35:44;98799.25;;;10.95;90.55
22872;BME280;11603;44.910;8.630;2023-03-11T06:38:10;98814.31;;;11.05;90.36
22872;BME280;11603;44.910;8.630;2023-03-11T06:40:39;98819.84;;;11.04;86.24
22872;BME280;11603;44.910;8.630;2023-03-11T06:43:05;98812.78;;;11.13;82.46
22872;BME280;11603;44.910;8.630;2023-03-11T06:45:35;98807.84;;;11.18;80.54
22872;BME280;11603;44.910;8.630;2023-03-11T06:48:01;98786.81;;;11.32;79.04
22872;BME280;11603;44.910;8.630;2023-03-11T06:50:27;98777.06;;;11.41;76.67
22872;BME280;11603;44.910;8.630;2023-03-11T06:52:54;98769.66;;;11.35;75.99
22872;BME280;11603;44.910;8.630;2023-03-11T06:55:20;98790.63;;;11.39;75.61
22872;BME280;11603;44.910;8.630;2023-03-11T06:57:45;98799.78;;;11.37;76.13
22872;BME280;11603;44.910;8.630;2023-03-11T07:00:12;98802.00;;;11.51;75.54
22872;BME280;11603;44.910;8.630;2023-03-11T07:02:42;98810.44;;;11.66;74.37
22872;BME280;11603;44.910;8.630;2023-03-11T07:05:08;98806.47;;;11.70;74.17
22872;BME280;11603;44.910;8.630;2023-03-11T07:07:34;98826.78;;;11.53;75.40
22872;BME280;11603;44.910;8.630;2023-03-11T07:10:02;98828.59;;;11.62;75.91
22872;BME280;11603;44.910;8.630;2023-03-11T07:12:28;98832.97;;;11.63;75.62
22872;BME280;11603;44.910;8.630;2023-03-11T07:14:56;98826.09;;;11.61;75.78
22872;BME280;11603;44.910;8.630;2023-03-11T07:17:22;98830.88;;;11.67;75.72
22872;BME280;11603;44.910;8.630;2023-03-11T07:19:50;98830.28;;;11.63;77.00
22872;BME280;11603;44.910;8.630;2023-03-11T07:22:16;98826.16;;;11.88;75.75
22872;BME280;11603;44.910;8.630;2023-03-11T07:24:46;98834.97;;;12.08;75.27
22872;BME280;11603;44.910;8.630;2023-03-11T07:27:12;98853.81;;;12.16;74.06
22872;BME280;11603;44.910;8.630;2023-03-11T07:29:38;98850.88;;;12.19;73.38
22872;BME280;11603;44.910;8.630;2023-03-11T07:32:05;98846.63;;;12.16;73.22
22872;BME280;11603;44.910;8.630;2023-03-11T07:34:30;98853.09;;;12.23;72.92
22872;BME280;11603;44.910;8.630;2023-03-11T07:36:56;98854.56;;;12.36;72.73
22872;BME280;11603;44.910;8.630;2023-03-11T07:39:21;98857.00;;;12.56;72.26
22872;BME280;11603;44.910;8.630;2023-03-11T07:41:47;98868.03;;;12.53;72.44
22872;BME280;11603;44.910;8.630;2023-03-11T07:44:14;98863.00;;;12.41;73.73
22872;BME280;11603;44.910;8.630;2023-03-11T07:46:39;98872.63;;;12.43;74.56
22872;BME280;11603;44.910;8.630;2023-03-11T07:49:05;98881.38;;;12.45;75.38
22872;BME280;11603;44.910;8.630;2023-03-11T07:51:33;98870.31;;;12.48;75.17
22872;BME280;11603;44.910;8.630;2023-03-11T07:54:00;98876.16;;;12.61;75.12
22872;BME280;11603;44.910;8.630;2023-03-11T07:56:29;98873.19;;;12.64;75.45
22872;BME280;11603;44.910;8.630;2023-03-11T07:58:57;98880.19;;;12.75;76.02
22872;BME280;11603;44.910;8.630;2023-03-11T08:01:25;98900.47;;;12.87;75.45
22872;BME280;11603;44.910;8.630;2023-03-11T08:03:52;98900.94;;;13.00;75.58
22872;BME280;11603;44.910;8.630;2023-03-11T08:06:25;98889.06;;;13.21;74.19
22872;BME280;11603;44.910;8.630;2023-03-11T08:08:52;98900.50;;;13.40;74.21
22872;BME280;11603;44.910;8.630;2023-03-11T08:11:19;98912.31;;;13.65;74.77
22872;BME280;11603;44.910;8.630;2023-03-11T08:13:48;98908.22;;;13.79;73.76
22872;BME280;11603;44.910;8.630;2023-03-11T08:16:17;98914.47;;;13.87;73.43
22872;BME280;11603;44.910;8.630;2023-03-11T08:18:43;98918.09;;;13.96;74.15
22872;BME280;11603;44.910;8.630;2023-03-11T08:21:15;98928.63;;;14.15;72.09
22872;BME280;11603;44.910;8.630;2023-03-11T08:23:41;98937.28;;;14.27;71.51
22872;BME280;11603;44.910;8.630;2023-03-11T08:26:12;98928.13;;;14.37;70.73
22872;BME280;11603;44.910;8.630;2023-03-11T08:28:38;98932.38;;;14.48;69.03
22872;BME280;11603;44.910;8.630;2023-03-11T08:31:21;98932.13;;;14.67;68.29
22872;BME280;11603;44.910;8.630;2023-03-11T08:33:49;98941.72;;;14.70;67.32
22872;BME280;11603;44.910;8.630;2023-03-11T08:36:18;98937.66;;;14.66;66.48
22872;BME280;11603;44.910;8.630;2023-03-11T08:38:44;98933.66;;;14.70;65.48
22872;BME280;11603;44.910;8.630;2023-03-11T08:41:10;98935.88;;;14.74;65.43
22872;BME280;11603;44.910;8.630;2023-03-11T08:43:35;98920.41;;;14.84;64.44
22872;BME280;11603;44.910;8.630;2023-03-11T08:46:02;98909.50;;;15.02;64.18
22872;BME280;11603;44.910;8.630;2023-03-11T08:48:29;98903.53;;;15.33;63.10
22872;BME280;11603;44.910;8.630;2023-03-11T08:50:54;98911.66;;;15.57;61.60
22872;BME280;11603;44.910;8.630;2023-03-11T08:53:21;98915.00;;;15.51;59.73
22872;BME280;11603;44.910;8.630;2023-03-11T08:55:48;98920.38;;;15.51;59.77
22872;BME280;11603;44.910;8.630;2023-03-11T08:58:14;98919.75;;;15.65;59.07
22872;BME280;11603;44.910;8.630;2023-03-11T09:00:39;98922.81;;;15.70;59.02
22872;BME280;11603;44.910;8.630;2023-03-11T09:03:05;98919.75;;;15.89;58.07
22872;BME280;11603;44.910;8.630;2023-03-11T09:05:30;98912.13;;;16.09;57.20
22872;BME280;11603;44.910;8.630;2023-03-11T09:07:56;98900.94;;;16.28;57.00
22872;BME280;11603;44.910;8.630;2023-03-11T09:10:21;98903.97;;;16.41;56.07
22872;BME280;11603;44.910;8.630;2023-03-11T09:12:47;98911.53;;;16.46;55.36
22872;BME280;11603;44.910;8.630;2023-03-11T09:15:12;98903.59;;;16.52;55.33
22872;BME280;11603;44.910;8.630;2023-03-11T09:17:38;98899.09;;;16.84;55.19
22872;BME280;11603;44.910;8.630;2023-03-11T09:20:04;98888.75;;;16.96;54.16
22872;BME280;11603;44.910;8.630;2023-03-11T09:22:29;98906.66;;;16.88;53.72
22872;BME280;11603;44.910;8.630;2023-03-11T09:24:56;98909.22;;;16.90;53.81
22872;BME280;11603;44.910;8.630;2023-03-11T09:27:22;98901.19;;;17.05;52.57
22872;BME280;11603;44.910;8.630;2023-03-11T09:29:47;98905.81;;;17.19;52.77
22872;BME280;11603;44.910;8.630;2023-03-11T09:32:13;98900.22;;;17.43;52.35
22872;BME280;11603;44.910;8.630;2023-03-11T09:34:39;98882.84;;;17.68;51.38
22872;BME280;11603;44.910;8.630;2023-03-11T09:37:05;98880.59;;;17.95;51.28
22872;BME280;11603;44.910;8.630;2023-03-11T09:39:31;98870.53;;;18.18;50.36
22872;BME280;11603;44.910;8.630;2023-03-11T09:42:01;98860.19;;;18.36;49.75
22872;BME280;11603;44.910;8.630;2023-03-11T09:52:29;98878.31;;;19.01;48.13
22872;BME280;11603;44.910;8.630;2023-03-11T09:54:58;98868.28;;;19.16;48.08
22872;BME280;11603;44.910;8.630;2023-03-11T09:57:28;98854.94;;;19.15;47.91
22872;BME280;11603;44.910;8.630;2023-03-11T09:59:56;98852.00;;;19.37;48.22
22872;BME280;11603;44.910;8.630;2023-03-11T10:02:24;98841.09;;;19.45;47.75
22872;BME280;11603;44.910;8.630;2023-03-11T10:05:00;98847.03;;;19.56;47.42
22872;BME280;11603;44.910;8.630;2023-03-11T10:07:35;98872.59;;;19.32;47.73
22872;BME280;11603;44.910;8.630;2023-03-11T10:10:05;98879.13;;;19.37;48.01
22872;BME280;11603;44.910;8.630;2023-03-11T10:15:13;98872.28;;;19.84;47.83
22872;BME280;11603;44.910;8.630;2023-03-11T10:18:17;98884.28;;;19.96;47.77
22872;BME280;11603;44.910;8.630;2023-03-11T10:21:14;98876.03;;;20.04;47.50
22872;BME280;11603;44.910;8.630;2023-03-11T10:24:04;98880.69;;;20.17;47.39
22872;BME280;11603;44.910;8.630;2023-03-11T10:26:36;98900.56;;;20.52;47.37
22872;BME280;11603;44.910;8.630;2023-03-11T10:31:54;98909.13;;;20.90;46.75
22872;BME280;11603;44.910;8.630;2023-03-11T10:34:41;98914.09;;;20.80;46.37
22872;BME280;11603;44.910;8.630;2023-03-11T10:37:15;98907.78;;;20.66;46.66
22872;BME280;11603;44.910;8.630;2023-03-11T10:39:41;98927.31;;;20.48;46.49
22872;BME280;11603;44.910;8.630;2023-03-11T10:42:12;98912.88;;;20.48;46.53
22872;BME280;11603;44.910;8.630;2023-03-11T10:44:41;98911.81;;;20.77;46.42
22872;BME280;11603;44.910;8.630;2023-03-11T10:47:14;98913.53;;;20.91;46.23
22872;BME280;11603;44.910;8.630;2023-03-11T10:49:41;98913.56;;;20.97;46.36
22872;BME280;11603;44.910;8.630;2023-03-11T10:52:06;98904.53;;;21.38;45.87
22872;BME280;11603;44.910;8.630;2023-03-11T10:54:40;98917.28;;;21.37;44.79
22872;BME280;11603;44.910;8.630;2023-03-11T10:59:49;98909.97;;;21.38;45.04
22872;BME280;11603;44.910;8.630;2023-03-11T11:02:26;98899.13;;;21.44;44.78
22872;BME280;11603;44.910;8.630;2023-03-11T11:07:49;98916.09;;;21.73;44.21
22872;BME280;11603;44.910;8.630;2023-03-11T11:10:22;98912.75;;;21.64;44.14
22872;BME280;11603;44.910;8.630;2023-03-11T11:17:58;98913.41;;;21.99;44.17
22872;BME280;11603;44.910;8.630;2023-03-11T11:20:25;98909.66;;;22.07;43.19
22872;BME280;11603;44.910;8.630;2023-03-11T11:22:55;98911.28;;;21.88;43.08
22872;BME280;11603;44.910;8.630;2023-03-11T11:25:56;98904.41;;;21.98;42.91
22872;BME280;11603;44.910;8.630;2023-03-11T11:28:23;98904.19;;;21.93;42.16
22872;BME280;11603;44.910;8.630;2023-03-11T11:30:59;98896.91;;;22.14;42.37
22872;BME280;11603;44.910;8.630;2023-03-11T11:33:32;98894.34;;;22.32;42.37
22872;BME280;11603;44.910;8.630;2023-03-11T11:36:02;98900.41;;;22.40;42.34
22872;BME280;11603;44.910;8.630;2023-03-11T11:38:30;98896.22;;;22.31;42.57
22872;BME280;11603;44.910;8.630;2023-03-11T11:40:58;98902.72;;;21.84;43.80
22872;BME280;11603;44.910;8.630;2023-03-11T11:43:43;98896.25;;;22.05;44.29
22872;BME280;11603;44.910;8.630;2023-03-11T11:46:36;98890.13;;;22.49;43.95
22872;BME280;11603;44.910;8.630;2023-03-11T11:49:19;98900.22;;;22.29;44.88
22872;BME280;11603;44.910;8.630;2023-03-11T11:51:55;98893.91;;;22.42;44.00
22872;BME280;11603;44.910;8.630;2023-03-11T11:56:56;98874.03;;;22.99;43.55
22872;BME280;11603;44.910;8.630;2023-03-11T11:59:23;98879.91;;;23.02;43.21
22872;BME280;11603;44.910;8.630;2023-03-11T12:05:00;98879.97;;;22.89;43.43
22872;BME280;11603;44.910;8.630;2023-03-11T12:13:36;98865.66;;;23.00;42.68
22872;BME280;11603;44.910;8.630;2023-03-11T12:18:38;98862.63;;;23.15;42.49
22872;BME280;11603;44.910;8.630;2023-03-11T12:21:18;98867.34;;;23.39;42.42
22872;BME280;11603;44.910;8.630;2023-03-11T12:26:41;98845.47;;;23.46;42.33
22872;BME280;11603;44.910;8.630;2023-03-11T12:29:23;98845.81;;;23.56;42.33
22872;BME280;11603;44.910;8.630;2023-03-11T12:31:50;98848.13;;;23.59;42.40
22872;BME280;11603;44.910;8.630;2023-03-11T12:34:19;98851.34;;;23.49;42.67
22872;BME280;11603;44.910;8.630;2023-03-11T12:36:46;98846.94;;;23.42;43.07
22872;BME280;11603;44.910;8.630;2023-03-11T12:39:38;98849.34;;;23.63;43.07
22872;BME280;11603;44.910;8.630;2023-03-11T12:42:15;98842.78;;;23.95;42.89
22872;BME280;11603;44.910;8.630;2023-03-11T12:44:42;98849.34;;;23.88;43.03
22872;BME280;11603;44.910;8.630;2023-03-11T12:47:17;98849.28;;;23.94;43.37
22872;BME280;11603;44.910;8.630;2023-03-11T12:49:54;98846.50;;;24.01;42.75
22872;BME280;11603;44.910;8.630;2023-03-11T12:52:23;98840.59;;;23.79;43.30
22872;BME280;11603;44.910;8.630;2023-03-11T12:55:22;98841.22;;;23.81;42.86
22872;BME280;11603;44.910;8.630;2023-03-11T12:58:04;98830.22;;;23.88;43.46
22872;BME280;11603;44.910;8.630;2023-03-11T13:03:47;98827.84;;;23.42;43.94
22872;BME280;11603;44.910;8.630;2023-03-11T13:08:51;98837.22;;;23.59;44.13
22872;BME280;11603;44.910;8.630;2023-03-11T13:14:26;98825.53;;;23.45;43.93
22872;BME280;11603;44.910;8.630;2023-03-11T13:16:54;98831.94;;;23.26;44.21
22872;BME280;11603;44.910;8.630;2023-03-11T13:21:55;98827.88;;;23.35;44.22
22872;BME280;11603;44.910;8.630;2023-03-11T13:41:02;98845.41;;;23.84;43.09
22872;BME280;11603;44.910;8.630;2023-03-11T13:43:29;98851.88;;;23.89;43.09
22872;BME280;11603;44.910;8.630;2023-03-11T13:46:10;98851.72;;;24.02;42.88
22872;BME280;11603;44.910;8.630;2023-03-11T13:48:42;98844.09;;;24.11;42.49
22872;BME280;11603;44.910;8.630;2023-03-11T13:51:16;98853.28;;;23.92;42.65
22872;BME280;11603;44.910;8.630;2023-03-11T13:53:56;98838.66;;;24.11;42.47
22872;BME280;11603;44.910;8.630;2023-03-11T13:56:27;98841.75;;;24.15;42.21
22872;BME280;11603;44.910;8.630;2023-03-11T13:59:21;98849.41;;;24.31;41.99
22872;BME280;11603;44.910;8.630;2023-03-11T14:01:51;98848.06;;;24.15;41.85
22872;BME280;11603;44.910;8.630;2023-03-11T14:04:26;98846.44;;;24.07;42.08
22872;BME280;11603;44.910;8.630;2023-03-11T14:06:51;98824.38;;;24.09;41.85
22872;BME280;11603;44.910;8.630;2023-03-11T14:09:19;98833.63;;;24.33;41.98
22872;BME280;11603;44.910;8.630;2023-03-11T14:11:46;98834.84;;;24.37;41.35
22872;BME280;11603;44.910;8.630;2023-03-11T14:14:31;98829.97;;;23.96;41.77
22872;BME280;11603;44.910;8.630;2023-03-11T14:16:58;98836.09;;;23.91;41.90
22872;BME280;11603;44.910;8.630;2023-03-11T14:19:26;98830.88;;;24.08;41.58
22872;BME280;11603;44.910;8.630;2023-03-11T14:21:53;98826.25;;;24.08;41.62
22872;BME280;11603;44.910;8.630;2023-03-11T14:24:25;98816.81;;;23.86;41.65